createdAt,value
2023-01-17T00:02:02.886Z,4.51
2023-01-17T00:04:48.604Z,4.75
2023-01-17T00:07:49.434Z,4.58
2023-01-17T00:10:18.519Z,4.64
2023-01-17T00:12:50.089Z,4.63
2023-01-17T00:15:19.645Z,4.65
2023-01-17T00:17:48.090Z,4.24
2023-01-17T00:20:34.506Z,4.30
2023-01-17T00:23:24.086Z,4.55
2023-01-17T00:26:06.612Z,4.24
2023-01-17T00:28:35.268Z,4.31
2023-01-17T00:31:02.585Z,4.32
2023-01-17T00:33:29.081Z,4.46
2023-01-17T00:35:57.749Z,4.33
2023-01-17T00:38:27.092Z,4.33
2023-01-17T00:40:53.793Z,4.26
2023-01-17T00:43:40.737Z,4.86
2023-01-17T00:46:26.945Z,4.20
2023-01-17T00:49:12.222Z,4.18
2023-01-17T00:51:57.423Z,4.30
2023-01-17T00:54:44.071Z,3.73
2023-01-17T00:57:29.200Z,3.48
2023-01-17T01:00:14.430Z,3.31
2023-01-17T01:02:59.866Z,3.22
2023-01-17T01:05:45.041Z,3.25
2023-01-17T01:08:38.557Z,3.31
2023-01-17T01:11:26.885Z,3.35
2023-01-17T01:14:12.335Z,3.28
2023-01-17T01:16:57.483Z,3.39
2023-01-17T01:19:42.682Z,3.61
2023-01-17T01:22:27.779Z,3.68
2023-01-17T01:25:13.108Z,3.78
2023-01-17T01:27:59.715Z,3.38
2023-01-17T01:30:45.089Z,3.38
2023-01-17T01:33:20.238Z,3.42
2023-01-17T01:35:50.400Z,3.66
2023-01-17T01:38:18.043Z,3.60
2023-01-17T01:40:48.445Z,3.55
2023-01-17T01:43:19.643Z,3.94
2023-01-17T01:45:52.699Z,3.94
2023-01-17T01:48:34.647Z,3.80
2023-01-17T01:51:06.365Z,3.91
2023-01-17T01:53:36.557Z,3.62
2023-01-17T01:56:06.912Z,3.53
2023-01-17T01:58:37.753Z,3.35
2023-01-17T02:01:08.594Z,3.49
2023-01-17T02:03:38.680Z,3.32
2023-01-17T02:06:15.454Z,3.28
2023-01-17T02:08:43.487Z,3.58
2023-01-17T02:11:12.278Z,3.60
2023-01-17T02:13:41.931Z,3.46
2023-01-17T02:16:18.426Z,3.37
2023-01-17T02:18:59.212Z,3.49
2023-01-17T02:21:30.418Z,3.52
2023-01-17T02:24:44.466Z,3.58
2023-01-17T02:27:24.834Z,3.27
2023-01-17T02:30:15.993Z,3.44
2023-01-17T02:32:54.474Z,3.37
2023-01-17T02:35:30.697Z,3.47
2023-01-17T02:38:08.267Z,3.63
2023-01-17T02:40:41.574Z,3.29
2023-01-17T02:43:12.871Z,3.28
2023-01-17T02:45:40.405Z,3.36
2023-01-17T02:48:12.320Z,3.45
2023-01-17T02:50:55.433Z,3.49
2023-01-17T02:53:36.441Z,3.67
2023-01-17T02:56:14.360Z,3.61
2023-01-17T02:59:02.330Z,3.71
2023-01-17T03:01:38.703Z,3.58
2023-01-17T03:04:14.318Z,3.58
2023-01-17T03:06:47.971Z,3.33
2023-01-17T03:09:17.857Z,3.45
2023-01-17T03:11:45.396Z,3.50
2023-01-17T03:14:12.937Z,3.35
2023-01-17T03:16:40.834Z,3.33
2023-01-17T03:19:09.963Z,3.62
2023-01-17T03:21:37.631Z,3.49
2023-01-17T03:24:05.551Z,3.39
2023-01-17T03:26:33.091Z,3.46
2023-01-17T03:29:00.596Z,3.01
2023-01-17T03:31:28.077Z,2.82
2023-01-17T03:33:55.545Z,2.62
2023-01-17T03:36:24.355Z,2.90
2023-01-17T03:38:51.820Z,2.95
2023-01-17T03:41:19.309Z,2.99
2023-01-17T03:43:46.796Z,2.75
2023-01-17T03:46:21.655Z,2.95
2023-01-17T03:48:50.050Z,3.12
2023-01-17T03:51:18.313Z,2.80
2023-01-17T03:53:47.901Z,2.80
2023-01-17T03:56:15.977Z,2.64
2023-01-17T03:58:43.589Z,3.05
2023-01-17T04:01:11.193Z,2.93
2023-01-17T04:03:38.852Z,2.50
2023-01-17T04:06:06.920Z,2.19
2023-01-17T04:08:34.544Z,2.16
2023-01-17T04:11:03.378Z,2.27
2023-01-17T04:13:30.879Z,2.47
2023-01-17T04:15:58.394Z,2.57
2023-01-17T04:18:26.376Z,2.78
2023-01-17T04:20:53.897Z,2.54
2023-01-17T04:23:21.573Z,2.50
2023-01-17T04:25:49.068Z,2.64
2023-01-17T04:28:17.934Z,2.97
2023-01-17T04:30:45.412Z,2.68
2023-01-17T04:33:13.227Z,2.69
2023-01-17T04:35:40.811Z,2.59
2023-01-17T04:38:08.303Z,2.84
2023-01-17T04:40:35.841Z,2.40
2023-01-17T04:43:03.338Z,2.12
2023-01-17T04:45:32.167Z,2.47
2023-01-17T04:48:03.864Z,2.51
2023-01-17T04:50:32.443Z,2.61
2023-01-17T04:52:59.950Z,2.17
2023-01-17T04:55:27.448Z,2.51
2023-01-17T04:57:54.963Z,2.60
2023-01-17T05:00:24.126Z,2.81
2023-01-17T05:02:53.233Z,2.93
2023-01-17T05:05:20.801Z,2.85
2023-01-17T05:07:54.438Z,3.38
2023-01-17T05:10:21.988Z,3.63
2023-01-17T05:12:54.989Z,3.33
2023-01-17T05:15:22.991Z,3.13
2023-01-17T05:17:53.822Z,3.27
2023-01-17T05:20:22.065Z,3.04
2023-01-17T05:22:55.475Z,3.07
2023-01-17T05:25:23.787Z,3.07
2023-01-17T05:27:51.334Z,3.45
2023-01-17T05:30:19.847Z,3.54
2023-01-17T05:32:49.690Z,3.28
2023-01-17T05:35:19.651Z,2.93
2023-01-17T05:37:49.085Z,2.96
2023-01-17T05:40:17.035Z,2.82
2023-01-17T05:42:47.875Z,2.78
2023-01-17T05:45:17.056Z,2.89
2023-01-17T05:47:44.764Z,3.28
2023-01-17T05:50:13.001Z,3.15
2023-01-17T05:52:42.513Z,3.07
2023-01-17T05:55:11.382Z,2.62
2023-01-17T05:57:39.754Z,2.68
2023-01-17T06:00:08.734Z,2.81
2023-01-17T06:02:36.297Z,2.34
2023-01-17T06:05:04.084Z,2.35
2023-01-17T06:07:31.773Z,2.35
2023-01-17T06:10:00.845Z,2.52
2023-01-17T06:12:28.341Z,2.87
2023-01-17T06:14:55.923Z,2.70
2023-01-17T06:17:23.441Z,2.74
2023-01-17T06:19:50.926Z,2.53
2023-01-17T06:22:18.405Z,2.26
2023-01-17T06:24:45.899Z,2.05
2023-01-17T06:27:14.736Z,2.30
2023-01-17T06:29:42.269Z,2.33
2023-01-17T06:32:09.964Z,2.47
2023-01-17T06:34:38.704Z,2.37
2023-01-17T06:37:06.415Z,2.22
2023-01-17T06:39:33.935Z,2.06
2023-01-17T06:42:01.877Z,2.60
2023-01-17T06:44:30.729Z,2.74
2023-01-17T06:46:58.227Z,2.94
2023-01-17T06:49:26.008Z,3.08
2023-01-17T06:51:53.503Z,3.15
2023-01-17T06:54:21.055Z,3.18
2023-01-17T06:56:48.568Z,3.14
2023-01-17T06:59:16.053Z,3.22
2023-01-17T07:01:44.960Z,3.44
2023-01-17T07:04:12.520Z,3.16
2023-01-17T07:06:40.007Z,3.19
2023-01-17T07:09:07.494Z,2.98
2023-01-17T07:11:34.976Z,3.19
2023-01-17T07:14:02.471Z,2.94
2023-01-17T07:16:30.266Z,2.97
2023-01-17T07:18:59.141Z,3.11
2023-01-17T07:21:26.666Z,3.34
2023-01-17T07:23:54.263Z,3.21
2023-01-17T07:26:21.771Z,2.96
2023-01-17T07:28:49.264Z,2.85
2023-01-17T07:31:16.823Z,2.80
2023-01-17T07:33:44.399Z,3.44
2023-01-17T07:36:13.383Z,3.50
2023-01-17T07:38:41.266Z,3.83
2023-01-17T07:41:10.969Z,3.86
2023-01-17T07:43:38.717Z,4.22
2023-01-17T07:46:07.272Z,4.47
2023-01-17T07:48:34.909Z,4.27
2023-01-17T07:51:02.475Z,4.34
2023-01-17T07:53:33.373Z,4.60
2023-01-17T07:56:05.463Z,4.72
2023-01-17T07:58:33.369Z,4.73
2023-01-17T08:01:05.263Z,4.70
2023-01-17T08:03:35.811Z,4.31
2023-01-17T08:06:03.878Z,4.40
2023-01-17T08:08:32.767Z,4.38
2023-01-17T08:11:00.279Z,4.15
2023-01-17T08:13:29.783Z,4.23
2023-01-17T08:15:57.475Z,4.35
2023-01-17T08:18:25.106Z,4.58
2023-01-17T08:20:52.585Z,4.42
2023-01-17T08:23:20.079Z,4.62
2023-01-17T08:25:48.910Z,5.18
2023-01-17T08:28:16.658Z,5.98
2023-01-17T08:30:44.403Z,6.11
2023-01-17T08:33:11.956Z,5.73
2023-01-17T08:35:39.771Z,5.39
2023-01-17T08:38:07.297Z,5.63
2023-01-17T08:40:34.826Z,6.73
2023-01-17T08:43:03.857Z,8.03
2023-01-17T08:45:31.365Z,8.32
2023-01-17T08:47:59.876Z,8.19
2023-01-17T08:50:27.819Z,7.30
2023-01-17T08:53:01.252Z,7.21
2023-01-17T08:55:29.147Z,7.86
2023-01-17T08:57:57.300Z,8.99
2023-01-17T09:00:27.109Z,9.62
2023-01-17T09:02:54.824Z,9.88
2023-01-17T09:05:22.299Z,10.41
2023-01-17T09:07:49.815Z,10.77
2023-01-17T09:10:17.615Z,11.46
2023-01-17T09:12:45.258Z,11.78
2023-01-17T09:15:14.603Z,11.29
2023-01-17T09:17:43.489Z,10.29
2023-01-17T09:20:12.425Z,10.08
2023-01-17T09:22:39.946Z,10.01
2023-01-17T09:25:08.478Z,10.33
2023-01-17T09:27:35.999Z,10.75
2023-01-17T09:30:03.765Z,10.63
2023-01-17T09:32:31.263Z,11.71
2023-01-17T09:35:00.734Z,11.30
2023-01-17T09:37:28.474Z,10.98
2023-01-17T09:39:55.941Z,10.75
2023-01-17T09:42:32.788Z,10.91
2023-01-17T09:45:00.501Z,10.62
2023-01-17T09:47:35.154Z,9.41
2023-01-17T09:50:19.874Z,8.63
2023-01-17T09:52:47.783Z,8.73
2023-01-17T09:55:17.472Z,8.11
2023-01-17T09:57:55.200Z,7.54
2023-01-17T10:00:36.656Z,7.04
2023-01-17T10:03:32.707Z,6.73
2023-01-17T10:06:15.115Z,6.77
2023-01-17T10:08:58.917Z,6.20
2023-01-17T10:11:39.005Z,5.99
2023-01-17T10:14:28.933Z,6.45
2023-01-17T10:17:07.591Z,6.72
2023-01-17T10:19:56.670Z,6.27
2023-01-17T10:22:36.763Z,6.67
2023-01-17T10:25:15.874Z,7.00
2023-01-17T10:27:49.349Z,7.82
2023-01-17T10:30:22.589Z,8.75
2023-01-17T10:32:50.851Z,8.97
2023-01-17T10:35:24.765Z,8.62
2023-01-17T10:37:56.885Z,8.16
2023-01-17T10:40:32.585Z,8.43
2023-01-17T10:43:05.489Z,8.40
2023-01-17T10:45:41.029Z,8.41
2023-01-17T10:48:13.962Z,8.03
2023-01-17T10:50:51.295Z,7.84
2023-01-17T10:53:38.570Z,7.95
2023-01-17T10:56:07.717Z,8.11
2023-01-17T10:58:35.235Z,8.56
2023-01-17T11:01:06.795Z,9.27
2023-01-17T11:03:35.214Z,9.53
2023-01-17T11:06:21.723Z,10.46
2023-01-17T11:08:53.969Z,11.17
2023-01-17T11:11:24.053Z,10.80
2023-01-17T11:13:54.102Z,10.33
2023-01-17T11:16:25.098Z,9.99
2023-01-17T11:19:08.427Z,9.73
2023-01-17T11:21:39.952Z,9.81
2023-01-17T11:24:19.675Z,9.64
2023-01-17T11:26:49.438Z,9.72
2023-01-17T11:29:31.770Z,9.80
2023-01-17T11:32:27.930Z,9.93
2023-01-17T11:35:16.344Z,9.48
2023-01-17T11:37:52.431Z,10.46
2023-01-17T11:40:30.259Z,11.61
2023-01-17T11:43:24.382Z,12.47
2023-01-17T11:46:06.287Z,12.24
2023-01-17T11:48:36.634Z,12.21
2023-01-17T11:51:05.733Z,12.56
2023-01-17T11:53:35.643Z,13.16
2023-01-17T11:56:07.674Z,12.00
2023-01-17T11:58:37.984Z,11.97
2023-01-17T12:01:30.469Z,12.48
2023-01-17T12:04:21.110Z,12.46
2023-01-17T12:06:59.021Z,12.75
2023-01-17T12:09:36.596Z,12.73
2023-01-17T12:12:31.842Z,12.67
2023-01-17T12:15:11.687Z,11.10
2023-01-17T12:17:53.675Z,9.80
2023-01-17T12:20:28.547Z,8.53
2023-01-17T12:23:17.052Z,7.69
2023-01-17T12:25:57.604Z,7.60
2023-01-17T12:28:57.754Z,7.34
2023-01-17T12:31:33.393Z,7.37
2023-01-17T12:34:15.450Z,7.74
2023-01-17T12:36:49.810Z,7.91
2023-01-17T12:39:21.441Z,7.64
2023-01-17T12:41:58.568Z,7.84
2023-01-17T12:44:41.528Z,8.24
2023-01-17T12:47:09.756Z,8.73
2023-01-17T12:49:43.823Z,8.73
2023-01-17T12:52:20.658Z,8.27
2023-01-17T12:54:51.976Z,8.33
2023-01-17T12:57:23.218Z,9.23
2023-01-17T13:00:00.578Z,9.60
2023-01-17T13:02:35.583Z,9.13
2023-01-17T13:05:09.756Z,9.55
2023-01-17T13:07:43.119Z,9.15
2023-01-17T13:10:24.321Z,8.56
2023-01-17T13:12:52.786Z,8.17
2023-01-17T13:15:25.816Z,7.66
2023-01-17T13:17:59.029Z,7.40
2023-01-17T13:20:34.175Z,7.31
2023-01-17T13:23:10.717Z,7.09
2023-01-17T13:25:46.105Z,7.08
2023-01-17T13:28:23.420Z,7.50
2023-01-17T13:31:11.363Z,7.60
2023-01-17T13:33:51.443Z,7.43
2023-01-17T13:36:37.537Z,7.43
2023-01-17T13:39:24.989Z,7.79
2023-01-17T13:41:55.109Z,7.68
2023-01-17T13:44:28.895Z,7.72
2023-01-17T13:47:01.686Z,7.75
2023-01-17T13:49:44.692Z,7.77
2023-01-17T13:52:33.174Z,8.20
2023-01-17T13:55:02.691Z,7.62
2023-01-17T13:57:41.831Z,7.38
2023-01-17T14:00:43.095Z,7.68
2023-01-17T14:03:13.027Z,7.06
2023-01-17T14:05:57.620Z,7.58
2023-01-17T14:08:27.191Z,7.50
2023-01-17T14:11:04.923Z,7.59
2023-01-17T14:13:35.567Z,7.88
2023-01-17T14:16:04.770Z,7.62
2023-01-17T14:18:39.652Z,7.11
2023-01-17T14:21:12.207Z,6.42
2023-01-17T14:23:57.066Z,6.12
2023-01-17T14:26:46.735Z,6.09
2023-01-17T14:29:45.842Z,6.41
2023-01-17T14:32:14.912Z,6.11
2023-01-17T14:34:46.225Z,5.90
2023-01-17T14:37:20.104Z,5.59
2023-01-17T14:39:50.445Z,5.39
2023-01-17T14:42:21.230Z,5.76
2023-01-17T14:44:51.900Z,5.65
2023-01-17T14:47:20.086Z,5.37
2023-01-17T14:49:48.985Z,4.90
2023-01-17T14:52:18.908Z,4.54
2023-01-17T14:54:50.176Z,4.71
2023-01-17T14:57:29.037Z,4.45
2023-01-17T15:00:18.924Z,4.69
2023-01-17T15:02:48.593Z,4.80
2023-01-17T15:05:19.988Z,4.98
2023-01-17T15:07:50.596Z,5.09
2023-01-17T15:10:21.600Z,4.67
2023-01-17T15:12:49.185Z,4.42
2023-01-17T15:15:38.209Z,4.23
2023-01-17T15:18:19.672Z,4.27
2023-01-17T15:20:57.933Z,4.35
2023-01-17T15:23:31.546Z,4.52
2023-01-17T15:25:59.610Z,4.50
2023-01-17T15:28:27.837Z,4.96
2023-01-17T15:31:04.033Z,4.76
2023-01-17T15:33:32.300Z,4.63
2023-01-17T15:36:02.921Z,4.80
2023-01-17T15:38:38.548Z,4.85
2023-01-17T15:41:11.581Z,4.79
2023-01-17T15:43:41.565Z,4.60
2023-01-17T15:46:22.925Z,4.66
2023-01-17T15:48:51.623Z,4.89
2023-01-17T15:51:33.763Z,4.29
2023-01-17T15:54:01.391Z,3.84
2023-01-17T15:56:34.107Z,3.74
2023-01-17T15:59:21.586Z,3.97
2023-01-17T16:01:59.182Z,3.96
2023-01-17T16:04:28.551Z,3.90
2023-01-17T16:07:10.248Z,3.59
2023-01-17T16:09:43.176Z,3.18
2023-01-17T16:12:10.812Z,3.36
2023-01-17T16:14:59.229Z,3.26
2023-01-17T16:17:25.843Z,3.58
2023-01-17T16:19:53.363Z,3.59
2023-01-17T16:22:22.166Z,3.25
2023-01-17T16:24:49.679Z,3.46
2023-01-17T16:27:17.215Z,3.80
2023-01-17T16:29:44.806Z,3.59
2023-01-17T16:32:12.319Z,3.42
2023-01-17T16:34:39.813Z,3.23
2023-01-17T16:37:08.056Z,3.17
2023-01-17T16:39:37.095Z,3.07
2023-01-17T16:42:04.872Z,3.08
2023-01-17T16:44:33.451Z,2.85
2023-01-17T16:47:02.223Z,2.42
2023-01-17T16:49:32.947Z,2.58
2023-01-17T16:52:00.435Z,2.48
2023-01-17T16:54:28.439Z,2.26
2023-01-17T16:56:57.274Z,2.19
2023-01-17T16:59:25.115Z,2.05
2023-01-17T17:01:55.474Z,2.05
2023-01-17T17:04:22.992Z,1.87
2023-01-17T17:06:50.491Z,2.25
2023-01-17T17:09:18.237Z,2.06
2023-01-17T17:11:45.710Z,2.19
2023-01-17T17:14:14.795Z,2.27
2023-01-17T17:16:43.510Z,2.46
2023-01-17T17:19:11.334Z,2.20
2023-01-17T17:21:38.848Z,2.61
2023-01-17T17:24:06.844Z,3.10
2023-01-17T17:26:36.956Z,2.94
2023-01-17T17:29:05.795Z,2.61
2023-01-17T17:31:34.634Z,2.59
2023-01-17T17:34:03.686Z,2.12
2023-01-17T17:36:31.584Z,2.33
2023-01-17T17:38:59.333Z,2.37
2023-01-17T17:41:28.175Z,1.93
2023-01-17T17:43:56.350Z,1.99
2023-01-17T17:46:26.121Z,1.83
2023-01-17T17:48:54.947Z,1.26
2023-01-17T17:51:24.551Z,1.60
2023-01-17T17:53:52.618Z,1.33
2023-01-17T17:56:20.636Z,1.41
2023-01-17T17:58:48.366Z,1.28
2023-01-17T18:01:16.245Z,1.34
2023-01-17T18:03:43.769Z,1.45
2023-01-17T18:06:13.603Z,1.43
2023-01-17T18:08:41.119Z,1.54
2023-01-17T18:11:11.239Z,1.76
2023-01-17T18:13:39.156Z,1.59
2023-01-17T18:16:08.586Z,1.56
2023-01-17T18:18:37.686Z,1.58
2023-01-17T18:21:10.271Z,1.57
2023-01-17T18:23:40.863Z,1.61
2023-01-17T18:26:16.600Z,1.59
2023-01-17T18:28:44.126Z,1.75
2023-01-17T18:31:11.941Z,1.74
2023-01-17T18:33:40.071Z,1.87
2023-01-17T18:36:09.550Z,1.75
2023-01-17T18:38:39.521Z,2.12
2023-01-17T18:41:08.151Z,2.45
2023-01-17T18:43:36.447Z,2.36
2023-01-17T18:46:04.997Z,1.99
2023-01-17T18:48:32.871Z,2.21
2023-01-17T18:51:02.418Z,2.25
2023-01-17T18:53:31.300Z,2.35
2023-01-17T18:56:01.997Z,2.38
2023-01-17T18:58:31.122Z,2.02
2023-01-17T19:01:07.912Z,1.83
2023-01-17T19:03:35.604Z,1.59
2023-01-17T19:06:03.488Z,1.76
2023-01-17T19:08:32.138Z,1.87
2023-01-17T19:11:01.167Z,1.76
2023-01-17T19:13:28.989Z,1.74
2023-01-17T19:16:00.139Z,1.95
2023-01-17T19:18:27.799Z,1.96
2023-01-17T19:20:55.286Z,1.71
2023-01-17T19:23:23.173Z,1.83
2023-01-17T19:25:54.382Z,1.94
2023-01-17T19:28:23.270Z,1.88
2023-01-17T19:30:50.853Z,1.89
2023-01-17T19:33:18.367Z,2.05
2023-01-17T19:35:45.855Z,2.48
2023-01-17T19:38:13.327Z,2.48
2023-01-17T19:40:40.832Z,2.09
2023-01-17T19:43:08.355Z,2.62
2023-01-17T19:45:37.213Z,2.33
2023-01-17T19:48:05.372Z,2.82
2023-01-17T19:50:32.859Z,2.34
2023-01-17T19:53:00.358Z,2.30
2023-01-17T19:55:27.860Z,2.77
2023-01-17T19:57:55.546Z,2.67
2023-01-17T20:00:30.102Z,2.84
2023-01-17T20:02:59.291Z,2.99
2023-01-17T20:05:26.834Z,2.42
2023-01-17T20:07:54.759Z,2.08
2023-01-17T20:10:22.426Z,2.22
2023-01-17T20:12:49.950Z,3.12
2023-01-17T20:15:17.721Z,2.58
2023-01-17T20:17:45.268Z,2.29
2023-01-17T20:20:14.361Z,2.72
2023-01-17T20:22:42.404Z,3.17
2023-01-17T20:25:10.915Z,2.87
2023-01-17T20:27:40.288Z,3.38
2023-01-17T20:30:19.747Z,4.03
2023-01-17T20:32:47.843Z,3.63
2023-01-17T20:35:17.900Z,4.17
2023-01-17T20:37:45.397Z,4.78
2023-01-17T20:40:13.538Z,4.28
2023-01-17T20:42:41.031Z,3.95
2023-01-17T20:45:09.870Z,4.45
2023-01-17T20:47:37.355Z,3.95
2023-01-17T20:50:06.021Z,3.42
2023-01-17T20:52:34.888Z,4.34
2023-01-17T20:55:02.397Z,4.40
2023-01-17T20:57:31.241Z,3.57
2023-01-17T20:59:58.808Z,4.53
2023-01-17T21:02:27.112Z,4.30
2023-01-17T21:04:54.633Z,3.73
2023-01-17T21:07:22.154Z,4.25
2023-01-17T21:09:51.034Z,3.73
2023-01-17T21:12:18.919Z,3.89
2023-01-17T21:14:46.420Z,3.86
2023-01-17T21:17:16.071Z,3.28
2023-01-17T21:19:43.685Z,2.73
2023-01-17T21:22:11.206Z,2.89
2023-01-17T21:24:38.705Z,2.55
2023-01-17T21:27:07.528Z,2.94
2023-01-17T21:29:35.056Z,2.84
2023-01-17T21:32:02.533Z,3.07
2023-01-17T21:34:31.938Z,2.96
2023-01-17T21:36:59.434Z,2.92
2023-01-17T21:39:29.061Z,3.01
2023-01-17T21:41:56.615Z,3.45
2023-01-17T21:44:25.966Z,3.57
2023-01-17T21:46:56.150Z,3.98
2023-01-17T21:49:24.199Z,3.86
2023-01-17T21:52:09.144Z,3.98
2023-01-17T21:54:53.974Z,4.34
2023-01-17T21:57:40.568Z,4.51
2023-01-17T22:00:14.379Z,4.38
2023-01-17T22:02:42.081Z,4.55
2023-01-17T22:05:10.662Z,4.73
2023-01-17T22:07:39.316Z,4.82
2023-01-17T22:10:07.760Z,4.84
2023-01-17T22:12:35.339Z,4.71
2023-01-17T22:15:04.081Z,4.84
2023-01-17T22:17:32.973Z,4.88
2023-01-17T22:20:00.476Z,4.87
2023-01-17T22:22:27.998Z,4.93
2023-01-17T22:24:56.419Z,5.00
2023-01-17T22:27:23.976Z,5.03
2023-01-17T22:29:51.460Z,5.08
2023-01-17T22:32:18.968Z,5.09
2023-01-17T22:34:48.439Z,5.10
2023-01-17T22:37:16.007Z,5.11
2023-01-17T22:39:43.594Z,5.14
2023-01-17T22:42:13.253Z,5.06
2023-01-17T22:44:40.832Z,5.04
2023-01-17T22:47:08.437Z,5.05
2023-01-17T22:49:35.958Z,4.91
2023-01-17T22:52:05.272Z,4.88
2023-01-17T22:54:32.856Z,4.81
2023-01-17T22:57:00.384Z,4.62
2023-01-17T22:59:27.880Z,4.19
2023-01-17T23:01:55.639Z,4.49
2023-01-17T23:04:23.220Z,4.71
2023-01-17T23:06:50.756Z,4.83
2023-01-17T23:09:19.570Z,4.89
2023-01-17T23:11:50.739Z,4.93
2023-01-17T23:14:20.604Z,4.94
2023-01-17T23:17:08.468Z,4.90
2023-01-17T23:19:37.770Z,4.83
2023-01-17T23:22:22.276Z,4.69
2023-01-17T23:24:53.314Z,4.87
2023-01-17T23:27:40.634Z,4.87
2023-01-17T23:30:12.093Z,4.83
2023-01-17T23:32:40.960Z,4.78
2023-01-17T23:35:08.864Z,4.82
2023-01-17T23:37:53.955Z,4.74
2023-01-17T23:40:23.373Z,4.49
2023-01-17T23:43:08.738Z,4.46
2023-01-17T23:45:36.776Z,4.35
2023-01-17T23:48:05.570Z,4.40
2023-01-17T23:50:33.811Z,4.52
2023-01-17T23:53:06.793Z,4.48
2023-01-17T23:55:37.818Z,4.62
2023-01-17T23:58:05.860Z,4.71
